Bismarck, ND (58501)

5:15 AM CST on February 01, 2015 (GMT -0600)
Lincoln | Change Station
CLOSE
Current Station
Personal Weather Station
Location: Lincoln, ND
Elevation: 1670 ft
Nearby Weather Stations
Active Advisory: Wind Chill Advisory Active Notice: Local Storm Report

Elev 1670 ft 46.76 °N, 100.71 °W | Updated 8 minutes ago

Overcast
Overcast
-6.5 °F
Feels Like -19 °F
N
5.8
Wind Variable Wind from NNE

Today
High -- | Low -- °F
--% Chance of Precip.
Yesterday
High -- | Low -- °F
Precip. -- in
8:07 AM 5:46 PM
Waxing Gibbous, 94% visible
Pressure 30.62 in
Visibility 9.0 miles
Clouds Few 3600 ft
Mostly Cloudy 7500 ft
Overcast 9000 ft
Windchill -19 °F
Dew Point -10 °F
Humidity 82%
Rainfall 0.00 in
Snow Depth Not available.
UV 0 out of 12
Pollen .10 out of 12
Air Quality Not available.
Flu Activity Not available.
METAR KBIS 011052Z AUTO 35011KT 9SM FEW036 BKN075 OVC090 M21/M25 A3048 RMK AO2 SNE50 SLP368 P0000 T12061250

More Conditions Fewer Conditions

Pressure 30.62 in
Visibility 9.0 miles
Clouds Few 3600 ft
Mostly Cloudy 7500 ft
Overcast 9000 ft
Windchill -19 °F
Dew Point -10 °F
Humidity 82%
Rainfall 0.00 in
Snow Depth Not available.
UV 0 out of 12
Pollen .10 out of 12
Air Quality Not available.
Flu Activity Not available.
METAR KBIS 011052Z AUTO 35011KT 9SM FEW036 BKN075 OVC090 M21/M25 A3048 RMK AO2 SNE50 SLP368 P0000 T12061250

More Conditions Fewer Conditions

10-Day Weather Forecast

Almanac

Astronomy

Feb. 01, 2015 Rise Set
Actual Time
Civil Twilight
Nautical Twilight
Astronomical Twilight
Moon
Length of Visible Light
Length of Day
Tomorrow will be .
, % of the Moon is Illuminated

Today's Extremes

State Highs State Lows

Community

WunderPhotos

Upload Photos

1,792,345 photos uploaded!

WunderBlogs® & News

Nearby

Air Quality

  Air Quality AQ Index Pollutant
Not available.

Snow Depth

Station Depth Elevation

Earthquake Activity

City Distance Mag. Time & Date
Minimum magnitude displayed is 2.5.

Coastal Water Temperatures

Place Temperature

Nearby Weather Stations